Time;durP1;ratioP1;P1;durP2;ratioP2;P2;SDS_P1;SDS_P2;PMS_P1;PMS_P2;Temp;Humidity;BMP_temperature;BMP_pressure;BME280_temperature;BME280_humidity;BME280_pressure;Samples;Min_cycle;Max_cycle;Signal;HPM_P1;HPM_P2
2022/06/02 00:00:11;;;;;;;5.22;2.95;;;17.40;99.90;;;;;;4941150;28;20097;-76
2022/06/02 00:03:17;;;;;;;5.05;2.88;;;17.40;99.90;;;;;;4943815;28;20039;-78
2022/06/02 00:06:08;;;;;;;3.38;2.78;;;17.40;99.90;;;;;;4942457;28;20058;-77
2022/06/02 00:08:51;;;;;;;3.20;2.70;;;17.30;99.90;;;;;;4941862;28;20174;-77
2022/06/02 00:11:48;;;;;;;4.05;2.80;;;17.30;99.90;;;;;;4945711;28;20031;-77
2022/06/02 00:14:51;;;;;;;4.50;3.05;;;17.30;99.90;;;;;;4944395;28;20978;-78
2022/06/02 00:17:37;;;;;;;5.18;3.00;;;17.20;99.90;;;;;;4940950;28;20027;-77
2022/06/02 00:20:10;;;;;;;3.35;3.05;;;17.00;99.90;;;;;;4942659;28;20019;-78
2022/06/02 00:22:49;;;;;;;4.68;2.80;;;17.00;99.90;;;;;;4940323;28;20101;-78
2022/06/02 00:25:43;;;;;;;3.70;2.83;;;16.90;99.90;;;;;;4945653;28;20236;-77
2022/06/02 00:28:26;;;;;;;5.18;2.90;;;16.90;99.90;;;;;;4947180;28;20472;-77
2022/06/02 00:31:14;;;;;;;3.08;2.78;;;16.80;99.90;;;;;;4936229;28;20255;-77
2022/06/02 00:34:09;;;;;;;3.78;3.17;;;16.70;99.90;;;;;;4939147;28;20039;-77
2022/06/02 00:37:10;;;;;;;4.63;2.80;;;16.70;99.90;;;;;;4938883;28;20047;-77
2022/06/02 00:39:46;;;;;;;3.85;3.03;;;16.70;99.90;;;;;;4938096;28;20035;-78
2022/06/02 00:42:34;;;;;;;5.10;3.08;;;16.60;99.90;;;;;;4946236;28;20023;-77
2022/06/02 00:45:13;;;;;;;4.32;3.38;;;16.50;99.90;;;;;;4940013;28;20548;-77
2022/06/02 00:51:03;;;;;;;2.88;2.50;;;16.50;99.90;;;;;;4942267;28;20042;-77
2022/06/02 01:00:30;;;;;;;3.80;2.90;;;16.50;99.90;;;;;;4945583;28;20034;-77
2022/06/02 01:03:12;;;;;;;2.97;2.60;;;16.40;99.90;;;;;;4944568;28;20037;-77
2022/06/02 01:06:23;;;;;;;3.90;3.50;;;16.40;99.90;;;;;;4939155;28;20053;-78
2022/06/02 01:09:00;;;;;;;3.75;2.97;;;16.30;99.90;;;;;;4946111;28;20031;-77
2022/06/02 01:11:52;;;;;;;3.80;3.08;;;16.20;99.90;;;;;;4949712;28;20023;-77
2022/06/02 01:14:57;;;;;;;2.80;2.53;;;16.20;99.90;;;;;;4946464;28;20116;-77
2022/06/02 01:17:54;;;;;;;3.38;2.83;;;16.20;99.90;;;;;;4946642;28;20032;-78
2022/06/02 01:20:43;;;;;;;4.38;3.00;;;16.20;99.90;;;;;;4943388;28;20023;-77
2022/06/02 01:23:56;;;;;;;5.65;3.03;;;16.20;99.90;;;;;;4943893;28;21733;-78
2022/06/02 01:27:00;;;;;;;3.58;2.70;;;16.20;99.90;;;;;;4943134;28;20019;-77
2022/06/02 01:29:44;;;;;;;4.05;2.60;;;16.20;99.90;;;;;;4949888;28;20026;-77
2022/06/02 01:32:16;;;;;;;5.03;2.78;;;16.20;99.90;;;;;;4952961;28;20035;-78
2022/06/02 01:35:09;;;;;;;3.33;2.67;;;16.10;99.90;;;;;;4943342;28;20026;-77
2022/06/02 01:37:47;;;;;;;3.25;2.90;;;16.00;99.90;;;;;;4947625;28;20022;-77
2022/06/02 01:40:42;;;;;;;3.08;2.78;;;16.00;99.90;;;;;;4944228;28;20098;-77
2022/06/02 01:43:35;;;;;;;3.08;2.45;;;15.90;99.90;;;;;;4946204;28;20026;-77
2022/06/02 01:46:36;;;;;;;3.53;2.70;;;15.90;99.90;;;;;;4946248;28;20488;-76
2022/06/02 01:49:36;;;;;;;6.22;3.00;;;15.90;99.90;;;;;;4946848;28;20147;-77
2022/06/02 01:52:06;;;;;;;4.35;2.90;;;15.90;99.90;;;;;;4943203;28;20019;-77
2022/06/02 01:54:51;;;;;;;4.03;2.88;;;15.90;99.90;;;;;;4944017;28;20053;-78
2022/06/02 01:57:51;;;;;;;2.92;2.70;;;15.90;99.90;;;;;;4951171;28;20039;-77
2022/06/02 02:00:25;;;;;;;2.88;2.58;;;16.00;99.90;;;;;;4952355;28;20019;-77
2022/06/02 02:03:26;;;;;;;3.17;2.70;;;15.90;99.90;;;;;;4939111;28;20023;-77
2022/06/02 02:06:11;;;;;;;4.72;2.60;;;15.90;99.90;;;;;;4944980;28;20049;-77
2022/06/02 02:09:05;;;;;;;4.82;2.70;;;15.90;99.90;;;;;;4938592;28;20094;-77
2022/06/02 02:11:52;;;;;;;6.82;2.63;;;16.00;99.90;;;;;;4943845;28;20019;-77
2022/06/02 02:15:12;;;;;;;3.20;2.85;;;16.00;99.90;;;;;;4949056;28;20105;-77
2022/06/02 02:17:44;;;;;;;2.80;2.60;;;16.00;99.90;;;;;;4942336;28;20043;-77
2022/06/02 02:20:52;;;;;;;3.70;2.97;;;16.00;99.90;;;;;;4953831;28;20031;-77
2022/06/02 02:23:31;;;;;;;4.23;3.13;;;16.00;99.90;;;;;;4921815;28;20038;-77
2022/06/02 02:26:17;;;;;;;4.38;2.90;;;16.00;99.90;;;;;;4938426;28;20030;-78
2022/06/02 02:29:13;;;;;;;3.63;3.00;;;16.10;99.90;;;;;;4944810;28;20275;-78
2022/06/02 02:31:45;;;;;;;4.18;2.80;;;16.00;99.90;;;;;;4948264;28;20029;-77
2022/06/02 02:34:48;;;;;;;3.97;2.88;;;16.00;99.90;;;;;;4950130;28;20775;-77
2022/06/02 02:37:24;;;;;;;3.53;3.00;;;15.90;99.90;;;;;;4945679;28;20030;-77
2022/06/02 02:40:32;;;;;;;3.67;2.80;;;15.80;99.90;;;;;;4943917;28;20031;-77
2022/06/02 02:43:07;;;;;;;3.00;2.70;;;15.70;99.90;;;;;;4889223;29;20028;-77
2022/06/02 02:45:46;;;;;;;3.58;2.85;;;15.70;99.90;;;;;;4944745;28;20059;-77
2022/06/02 02:48:36;;;;;;;3.13;2.80;;;15.60;99.90;;;;;;4948481;28;20026;-77
2022/06/02 02:51:25;;;;;;;3.50;2.92;;;15.60;99.90;;;;;;4948162;28;20094;-77
2022/06/02 02:54:28;;;;;;;2.90;2.60;;;15.60;99.90;;;;;;4939238;28;20664;-77
2022/06/02 02:57:06;;;;;;;3.35;3.05;;;15.50;99.90;;;;;;4923588;28;20039;-77
2022/06/02 03:00:09;;;;;;;3.35;2.67;;;15.70;99.90;;;;;;4947786;28;20026;-78
2022/06/02 03:03:07;;;;;;;4.00;3.10;;;15.70;99.90;;;;;;4939997;28;20031;-77
2022/06/02 03:05:53;;;;;;;;;;;15.60;99.90;;;;;;4947223;28;20045;-78
2022/06/02 03:08:40;;;;;;;3.58;3.17;;;15.60;99.90;;;;;;4960804;28;19994;-77
2022/06/02 03:11:33;;;;;;;4.20;3.20;;;15.70;99.90;;;;;;4944144;28;20654;-77
2022/06/02 03:14:11;;;;;;;5.05;3.60;;;15.60;99.90;;;;;;4946000;28;20511;-77
2022/06/02 03:16:45;;;;;;;4.15;3.35;;;15.60;99.90;;;;;;4945577;28;20187;-77
2022/06/02 03:19:21;;;;;;;5.43;4.07;;;15.60;99.90;;;;;;4945940;28;20093;-77
2022/06/02 03:22:02;;;;;;;3.95;3.35;;;15.60;99.90;;;;;;4941245;28;20041;-78
2022/06/02 03:24:52;;;;;;;4.97;3.63;;;15.60;99.90;;;;;;4943581;28;20093;-77
2022/06/02 03:27:26;;;;;;;4.70;3.35;;;15.70;99.90;;;;;;4948029;28;20051;-78
2022/06/02 03:29:53;;;;;;;3.78;3.20;;;15.70;99.90;;;;;;4948931;28;20097;-78
2022/06/02 03:32:51;;;;;;;3.58;3.05;;;15.80;99.90;;;;;;4953670;28;20053;-78
2022/06/02 03:35:32;;;;;;;5.30;3.77;;;15.80;99.90;;;;;;4946632;28;20024;-78
2022/06/02 03:38:25;;;;;;;4.28;3.40;;;15.90;99.90;;;;;;4941835;28;20056;-77
2022/06/02 03:41:22;;;;;;;4.63;2.80;;;16.00;99.90;;;;;;4940360;28;20032;-77
2022/06/02 03:44:26;;;;;;;5.20;3.40;;;16.00;99.90;;;;;;4939577;28;20015;-77
2022/06/02 03:47:13;;;;;;;12.73;3.92;;;16.10;99.90;;;;;;4943889;28;20038;-78
2022/06/02 03:50:34;;;;;;;4.13;3.05;;;16.20;99.90;;;;;;4941203;28;20026;-78
2022/06/02 03:53:13;;;;;;;4.63;3.53;;;16.20;99.90;;;;;;4870261;29;20060;-77
2022/06/02 03:55:50;;;;;;;3.33;2.90;;;16.20;99.90;;;;;;4939740;28;21700;-78
2022/06/02 03:58:18;;;;;;;5.00;3.45;;;16.30;99.90;;;;;;4943557;28;20476;-78
2022/06/02 04:01:00;;;;;;;4.75;3.47;;;16.30;99.90;;;;;;4941479;28;20034;-77
2022/06/02 04:03:51;;;;;;;4.13;3.50;;;16.30;99.90;;;;;;4946250;28;20134;-77
2022/06/02 04:06:55;;;;;;;5.80;3.63;;;16.30;99.90;;;;;;4940669;28;20023;-78
2022/06/02 04:09:44;;;;;;;5.35;4.00;;;16.30;99.90;;;;;;4943999;28;20026;-77
2022/06/02 04:15:47;;;;;;;4.70;3.47;;;16.30;99.90;;;;;;4940767;28;20531;-77
2022/06/02 04:18:35;;;;;;;5.07;3.60;;;16.40;99.90;;;;;;4951741;28;20078;-77
2022/06/02 04:21:18;;;;;;;5.22;3.88;;;16.50;99.90;;;;;;4942262;28;20039;-78
2022/06/02 04:24:04;;;;;;;4.70;3.33;;;16.60;99.90;;;;;;4937553;28;20031;-77
2022/06/02 04:26:49;;;;;;;4.95;4.03;;;16.60;99.90;;;;;;4945739;28;20024;-77
2022/06/02 04:29:25;;;;;;;5.10;3.53;;;16.70;99.90;;;;;;4944635;28;21463;-77
2022/06/02 04:32:17;;;;;;;5.97;4.28;;;16.70;99.90;;;;;;4937472;28;20046;-77
2022/06/02 04:35:12;;;;;;;4.50;3.30;;;16.70;99.90;;;;;;4941206;28;20110;-78
2022/06/02 04:38:09;;;;;;;3.80;3.30;;;16.80;99.90;;;;;;4946548;28;20046;-77
2022/06/02 04:41:13;;;;;;;4.68;3.05;;;16.80;99.90;;;;;;4945936;28;20019;-76
2022/06/02 04:44:11;;;;;;;4.28;3.40;;;16.90;99.90;;;;;;4895079;29;20042;-77
2022/06/02 04:46:42;;;;;;;5.40;3.45;;;17.00;99.90;;;;;;4938704;28;20023;-76
2022/06/02 04:49:43;;;;;;;4.90;3.35;;;17.00;99.90;;;;;;4942684;28;20031;-76
2022/06/02 04:52:17;;;;;;;3.75;2.92;;;17.10;99.90;;;;;;4942871;28;20027;-76
2022/06/02 04:55:22;;;;;;;4.32;3.15;;;17.20;99.90;;;;;;4938501;28;20034;-76
2022/06/02 04:57:57;;;;;;;5.18;3.10;;;17.30;99.90;;;;;;4940824;28;20011;-76
2022/06/02 05:00:51;;;;;;;3.33;2.70;;;17.30;99.90;;;;;;4944075;28;20016;-77
2022/06/02 05:03:46;;;;;;;3.20;2.90;;;17.50;99.90;;;;;;4862832;29;20043;-77
2022/06/02 05:06:42;;;;;;;3.75;2.90;;;17.60;99.90;;;;;;4878948;29;20037;-77
2022/06/02 05:09:09;;;;;;;6.75;3.03;;;17.60;99.90;;;;;;4941920;28;20042;-77
2022/06/02 05:12:03;;;;;;;;;;;17.60;99.90;;;;;;4944343;28;20030;-78
2022/06/02 05:14:48;;;;;;;4.43;3.30;;;17.70;99.90;;;;;;4927345;28;20290;-78
2022/06/02 05:17:30;;;;;;;6.78;2.83;;;17.70;99.90;;;;;;4945102;28;20030;-76
2022/06/02 05:20:04;;;;;;;3.75;2.40;;;17.90;99.90;;;;;;4932735;28;20038;-76
2022/06/02 05:23:06;;;;;;;3.08;2.70;;;18.10;99.90;;;;;;4939218;28;20031;-76
2022/06/02 05:25:53;;;;;;;3.33;3.00;;;18.50;99.90;;;;;;4942755;28;20069;-76
2022/06/02 05:28:56;;;;;;;3.13;2.53;;;18.70;99.90;;;;;;4942719;28;20050;-76
2022/06/02 05:32:05;;;;;;;3.17;2.80;;;18.70;99.90;;;;;;4942489;28;20102;-76
2022/06/02 05:35:09;;;;;;;2.67;2.45;;;18.80;99.90;;;;;;4947866;28;20015;-77
2022/06/02 05:38:00;;;;;;;2.95;2.50;;;18.90;99.90;;;;;;4948827;28;20388;-76
2022/06/02 05:40:38;;;;;;;2.35;2.00;;;19.10;99.90;;;;;;4950068;28;20038;-76
2022/06/02 05:43:25;;;;;;;3.28;2.20;;;19.60;99.90;;;;;;4941472;28;20027;-76
2022/06/02 05:46:05;;;;;;;3.38;2.30;;;20.10;99.90;;;;;;4942448;28;20483;-77
2022/06/02 05:49:05;;;;;;;2.08;1.98;;;20.70;99.90;;;;;;4948360;28;20037;-77
2022/06/02 05:51:55;;;;;;;2.00;1.83;;;22.00;99.90;;;;;;4948654;28;20026;-77
2022/06/02 05:55:05;;;;;;;2.45;1.88;;;23.50;99.40;;;;;;4947185;28;20030;-77
2022/06/02 05:58:06;;;;;;;2.22;2.03;;;23.60;98.50;;;;;;4947152;28;20054;-77
2022/06/02 06:00:58;;;;;;;2.47;2.10;;;23.50;97.90;;;;;;4947626;28;20027;-77
2022/06/02 06:03:32;;;;;;;2.03;1.83;;;24.30;97.30;;;;;;4944209;28;20491;-77
2022/06/02 06:06:30;;;;;;;4.47;1.85;;;25.10;95.50;;;;;;4940005;28;20031;-77
2022/06/02 06:09:02;;;;;;;;;;;24.60;94.70;;;;;;4939307;28;20073;-77
2022/06/02 06:12:08;;;;;;;1.77;1.67;;;23.70;95.70;;;;;;4947267;28;19910;-77
2022/06/02 06:14:35;;;;;;;2.75;2.00;;;22.90;97.10;;;;;;4948316;28;20027;-77
2022/06/02 06:17:26;;;;;;;2.17;1.92;;;22.40;98.30;;;;;;4942081;28;20029;-77
2022/06/02 06:20:36;;;;;;;2.03;1.85;;;22.10;99.20;;;;;;4950993;28;20018;-77
2022/06/02 06:23:23;;;;;;;3.63;2.10;;;21.90;99.60;;;;;;4934432;28;20031;-76
2022/06/02 06:26:45;;;;;;;3.10;2.03;;;22.30;99.20;;;;;;4943584;28;20416;-76
2022/06/02 06:29:36;;;;;;;4.13;2.00;;;22.40;99.10;;;;;;4892753;29;20939;-76
2022/06/02 06:32:14;;;;;;;2.22;2.03;;;23.20;97.90;;;;;;4887441;29;20596;-78
2022/06/02 06:34:49;;;;;;;2.00;1.70;;;24.40;95.90;;;;;;4888406;29;20584;-78
2022/06/02 06:37:49;;;;;;;4.30;2.35;;;25.00;94.40;;;;;;4916748;28;20035;-78
2022/06/02 06:40:43;;;;;;;2.08;1.80;;;25.00;93.30;;;;;;4944218;28;20050;-80
2022/06/02 06:43:31;;;;;;;3.47;2.05;;;24.40;93.80;;;;;;4946871;28;20106;-78
2022/06/02 06:46:49;;;;;;;1.70;1.60;;;24.50;93.90;;;;;;4942467;28;20097;-78
2022/06/02 06:49:40;;;;;;;2.50;1.50;;;24.90;93.10;;;;;;4929188;28;20058;-78
2022/06/02 06:52:25;;;;;;;1.83;1.73;;;25.10;91.90;;;;;;4941781;28;20023;-78
2022/06/02 06:55:25;;;;;;;1.88;1.77;;;24.50;92.70;;;;;;4939828;28;20038;-79
2022/06/02 06:57:56;;;;;;;1.70;1.60;;;24.00;93.70;;;;;;4940092;28;20101;-77
2022/06/02 07:00:52;;;;;;;2.60;2.05;;;23.50;94.20;;;;;;4942949;28;20113;-76
2022/06/02 07:03:43;;;;;;;3.63;1.88;;;23.00;95.10;;;;;;4939161;28;20225;-76
2022/06/02 07:06:33;;;;;;;3.85;2.17;;;22.30;96.20;;;;;;4946743;28;21516;-77
2022/06/02 07:09:41;;;;;;;2.25;1.70;;;22.30;97.20;;;;;;4943815;28;20034;-76
2022/06/02 07:12:52;;;;;;;2.20;2.00;;;22.60;96.80;;;;;;4938081;28;20259;-76
2022/06/02 07:15:45;;;;;;;1.90;1.80;;;22.50;96.90;;;;;;4930856;28;20031;-76
2022/06/02 07:18:47;;;;;;;2.42;1.63;;;22.10;97.50;;;;;;4941238;28;20026;-76
2022/06/02 07:21:30;;;;;;;4.07;2.40;;;22.00;98.20;;;;;;4944332;28;20058;-74
2022/06/02 07:23:57;;;;;;;1.90;1.80;;;22.00;98.00;;;;;;4937616;28;20015;-74
2022/06/02 07:26:31;;;;;;;3.00;1.60;;;22.20;97.90;;;;;;4946688;28;20519;-74
2022/06/02 07:29:40;;;;;;;2.65;1.60;;;22.40;97.90;;;;;;4967320;28;20026;-75
2022/06/02 07:32:30;;;;;;;2.85;1.83;;;23.30;96.90;;;;;;4946631;28;20487;-76
2022/06/02 07:35:18;;;;;;;4.32;2.03;;;25.90;93.10;;;;;;4940609;28;20026;-76
2022/06/02 07:37:58;;;;;;;5.18;1.85;;;27.60;89.80;;;;;;4946498;28;20609;-76
2022/06/02 07:40:51;;;;;;;6.15;1.65;;;29.60;82.40;;;;;;4945279;28;20415;-75
2022/06/02 07:43:42;;;;;;;3.08;1.80;;;30.60;77.00;;;;;;4945141;28;20023;-76
2022/06/02 07:46:20;;;;;;;2.45;1.70;;;31.20;72.30;;;;;;4942135;28;20023;-76
2022/06/02 07:49:01;;;;;;;1.85;1.40;;;31.60;68.90;;;;;;4943030;28;20069;-75
2022/06/02 07:51:36;;;;;;;2.67;1.80;;;32.80;66.80;;;;;;4943230;28;20026;-75
2022/06/02 07:54:24;;;;;;;1.85;1.75;;;32.80;64.40;;;;;;4936095;28;20090;-75
2022/06/02 07:57:09;;;;;;;2.70;1.60;;;33.10;62.60;;;;;;4946876;28;20245;-76
2022/06/02 07:59:45;;;;;;;1.90;1.75;;;33.30;61.40;;;;;;4943727;28;20622;-76
2022/06/02 08:02:52;;;;;;;3.55;1.90;;;33.70;58.70;;;;;;4939834;28;20034;-76
2022/06/02 08:05:41;;;;;;;;;;;33.80;58.80;;;;;;4942557;28;20560;-77
2022/06/02 08:08:49;;;;;;;1.60;1.50;;;34.20;57.50;;;;;;4938552;28;19941;-77
2022/06/02 08:11:47;;;;;;;2.97;1.50;;;33.70;56.80;;;;;;4940143;28;20034;-77
2022/06/02 08:14:42;;;;;;;2.42;1.80;;;33.10;57.10;;;;;;4936562;28;20031;-77
2022/06/02 08:17:29;;;;;;;3.22;1.38;;;33.30;56.30;;;;;;4918304;28;20061;-77
2022/06/02 08:20:19;;;;;;;1.67;1.30;;;33.40;54.30;;;;;;4945340;28;20015;-77
2022/06/02 08:22:59;;;;;;;2.00;1.40;;;34.30;52.50;;;;;;4939617;28;20034;-83
2022/06/02 08:25:48;;;;;;;1.60;1.45;;;35.60;50.50;;;;;;4940156;28;20020;-77
2022/06/02 08:28:32;;;;;;;2.25;1.35;;;36.00;50.10;;;;;;4946442;28;20062;-77
2022/06/02 08:31:15;;;;;;;3.60;1.42;;;35.90;48.90;;;;;;4940953;28;20106;-77
2022/06/02 08:33:53;;;;;;;1.55;1.45;;;35.40;49.70;;;;;;4937779;28;21185;-77
2022/06/02 08:36:39;;;;;;;2.08;1.27;;;35.00;49.60;;;;;;4939544;28;20043;-77
2022/06/02 08:39:45;;;;;;;2.47;1.30;;;34.80;49.20;;;;;;4935641;28;20027;-78
2022/06/02 08:42:50;;;;;;;3.33;1.20;;;35.30;47.80;;;;;;4938302;28;20270;-77
2022/06/02 08:45:52;;;;;;;1.52;1.33;;;35.10;48.50;;;;;;4941702;28;20030;-77
2022/06/02 08:48:23;;;;;;;1.50;1.40;;;35.50;47.30;;;;;;4923008;28;20123;-77
2022/06/02 08:51:08;;;;;;;1.67;1.20;;;35.60;45.40;;;;;;4944762;28;20027;-77
2022/06/02 08:56:53;;;;;;;1.77;1.65;;;34.40;47.10;;;;;;4944572;28;20126;-78
2022/06/02 08:59:42;;;;;;;2.28;1.40;;;34.10;48.10;;;;;;4946110;28;20027;-77
2022/06/02 09:02:34;;;;;;;4.20;1.65;;;34.10;46.70;;;;;;4940839;28;20968;-77
2022/06/02 09:05:36;;;;;;;1.85;1.27;;;34.00;47.00;;;;;;4934234;28;20572;-78
2022/06/02 09:08:48;;;;;;;1.90;1.08;;;34.70;47.10;;;;;;4940181;28;20027;-77
2022/06/02 09:11:42;;;;;;;1.20;1.10;;;35.20;46.30;;;;;;4938426;28;20055;-77
2022/06/02 09:14:36;;;;;;;2.47;1.20;;;35.60;45.80;;;;;;4941589;28;20026;-77
2022/06/02 09:17:16;;;;;;;1.67;1.05;;;35.70;46.00;;;;;;4942462;28;20468;-78
2022/06/02 09:20:01;;;;;;;1.38;1.13;;;35.60;45.90;;;;;;4942021;28;20125;-78
2022/06/02 09:22:39;;;;;;;1.60;1.25;;;35.20;46.10;;;;;;4948941;28;20098;-79
2022/06/02 09:25:41;;;;;;;1.13;1.13;;;35.40;45.30;;;;;;4938770;28;20043;-78
2022/06/02 09:28:30;;;;;;;1.58;1.10;;;34.40;45.50;;;;;;4944436;28;20055;-78
2022/06/02 09:31:08;;;;;;;1.90;1.17;;;34.10;46.40;;;;;;4943850;28;20546;-78
2022/06/02 09:33:53;;;;;;;1.30;1.20;;;34.90;45.40;;;;;;4941098;28;20074;-78
2022/06/02 09:36:41;;;;;;;;;;;35.80;45.50;;;;;;4953911;28;20082;-78
2022/06/02 09:39:19;;;;;;;4.75;1.27;;;35.90;45.40;;;;;;4940732;28;20025;-77
2022/06/02 09:42:10;;;;;;;1.70;1.20;;;36.20;44.10;;;;;;4942958;28;20052;-78
2022/06/02 09:44:57;;;;;;;1.90;1.40;;;35.40;44.60;;;;;;4946470;28;20027;-78
2022/06/02 09:47:39;;;;;;;2.65;1.30;;;35.10;44.40;;;;;;4948687;28;20551;-78
2022/06/02 09:50:15;;;;;;;2.58;1.30;;;35.60;44.20;;;;;;4944290;28;20150;-77
2022/06/02 09:53:15;;;;;;;3.65;1.30;;;35.50;44.70;;;;;;4944660;28;20441;-78
2022/06/02 09:55:58;;;;;;;2.35;1.33;;;34.60;44.80;;;;;;4948498;28;20046;-78
2022/06/02 09:59:04;;;;;;;4.20;1.20;;;34.40;45.30;;;;;;4941738;28;20749;-77
2022/06/02 10:01:44;;;;;;;1.50;1.23;;;34.00;46.00;;;;;;4943656;28;20025;-78
2022/06/02 10:04:25;;;;;;;1.30;1.20;;;33.80;46.70;;;;;;4939819;28;20019;-78
2022/06/02 10:07:33;;;;;;;2.05;1.20;;;33.90;46.40;;;;;;4948446;28;20026;-78
2022/06/02 10:10:21;;;;;;;2.75;1.15;;;33.80;46.10;;;;;;4926606;28;20588;-78
2022/06/02 10:13:27;;;;;;;3.38;1.30;;;33.80;47.00;;;;;;4948853;28;20023;-78
2022/06/02 10:16:21;;;;;;;1.87;1.30;;;33.60;45.90;;;;;;4919085;28;20124;-78
2022/06/02 10:18:58;;;;;;;2.05;1.40;;;33.70;46.00;;;;;;4947968;28;20039;-77
2022/06/02 10:21:44;;;;;;;1.92;1.38;;;34.40;44.90;;;;;;4946165;28;20504;-77
2022/06/02 10:24:29;;;;;;;2.22;1.40;;;35.20;43.90;;;;;;4940503;28;21439;-77
2022/06/02 10:27:23;;;;;;;3.35;1.83;;;35.10;44.50;;;;;;4946194;28;20026;-77
2022/06/02 10:30:08;;;;;;;1.77;1.30;;;35.80;44.40;;;;;;4944894;28;20019;-78
2022/06/02 10:32:37;;;;;;;1.33;1.15;;;35.50;44.70;;;;;;4948918;28;20010;-77
2022/06/02 10:35:54;;;;;;;1.40;1.30;;;35.20;44.10;;;;;;4944197;28;20031;-77
2022/06/02 10:38:40;;;;;;;1.30;1.20;;;35.40;43.70;;;;;;4940364;28;20027;-77
2022/06/02 10:41:47;;;;;;;1.00;1.00;;;35.20;43.90;;;;;;4949671;28;20113;-77
2022/06/02 10:44:19;;;;;;;1.42;1.33;;;35.40;44.10;;;;;;4946977;28;20061;-78
2022/06/02 10:46:55;;;;;;;2.13;1.30;;;35.50;44.80;;;;;;4947750;28;20392;-77
2022/06/02 10:49:44;;;;;;;2.17;1.30;;;34.60;45.50;;;;;;4941654;28;20568;-77
2022/06/02 10:52:34;;;;;;;1.58;1.48;;;33.70;45.70;;;;;;4940720;28;21535;-77
2022/06/02 10:55:22;;;;;;;2.30;1.42;;;32.60;47.50;;;;;;4940372;28;20027;-77
2022/06/02 10:58:27;;;;;;;2.22;1.40;;;31.50;48.50;;;;;;4945163;28;20031;-77
2022/06/02 11:00:58;;;;;;;1.83;1.55;;;30.60;50.90;;;;;;4941384;28;20031;-77
2022/06/02 11:03:46;;;;;;;1.48;1.20;;;29.80;51.70;;;;;;4947047;28;20470;-76
2022/06/02 11:06:49;;;;;;;2.17;1.48;;;29.40;52.40;;;;;;4938829;28;20031;-80
2022/06/02 11:09:42;;;;;;;2.53;2.10;;;28.80;53.00;;;;;;4939987;28;20081;-79
2022/06/02 11:12:48;;;;;;;1.50;1.40;;;28.50;52.60;;;;;;4942213;28;20584;-77
2022/06/02 11:15:25;;;;;;;1.48;1.38;;;28.40;53.30;;;;;;4943790;28;20034;-77
2022/06/02 11:18:07;;;;;;;2.05;1.40;;;28.40;53.20;;;;;;4946676;28;20030;-77
2022/06/02 11:20:36;;;;;;;3.83;1.60;;;28.30;52.60;;;;;;4946991;28;20031;-79
2022/06/02 11:23:20;;;;;;;2.70;1.80;;;28.00;53.70;;;;;;4937977;28;20093;-80
2022/06/02 11:26:07;;;;;;;2.05;1.30;;;28.00;54.40;;;;;;4945367;28;20035;-80
2022/06/02 11:29:12;;;;;;;1.40;1.30;;;27.80;53.30;;;;;;4943007;28;20377;-78
2022/06/02 11:31:53;;;;;;;4.47;1.40;;;27.70;53.60;;;;;;4944387;28;20030;-78
2022/06/02 11:34:24;;;;;;;1.70;1.40;;;27.70;54.80;;;;;;4945696;28;20361;-78
2022/06/02 11:37:18;;;;;;;2.17;1.70;;;27.50;53.20;;;;;;4941764;28;20022;-77
2022/06/02 11:40:23;;;;;;;2.30;1.70;;;27.40;54.60;;;;;;4943264;28;20042;-77
2022/06/02 11:42:59;;;;;;;3.20;1.92;;;27.40;53.90;;;;;;4932771;28;20816;-77
2022/06/02 11:45:28;;;;;;;1.52;1.42;;;27.50;54.40;;;;;;4940736;28;20134;-76
2022/06/02 11:48:03;;;;;;;1.60;1.50;;;27.50;55.60;;;;;;4939167;28;20882;-77
2022/06/02 11:50:53;;;;;;;3.60;1.58;;;27.40;55.00;;;;;;4945678;28;20098;-77
2022/06/02 11:53:41;;;;;;;2.47;1.42;;;27.60;53.30;;;;;;4940370;28;20023;-77
2022/06/02 11:56:48;;;;;;;1.95;1.50;;;27.60;52.90;;;;;;4945647;28;20542;-78
2022/06/02 11:59:56;;;;;;;1.50;1.40;;;27.60;54.20;;;;;;4947138;28;20023;-79
2022/06/02 12:02:44;;;;;;;2.67;1.60;;;27.70;53.80;;;;;;4941313;28;20630;-77
2022/06/02 12:05:49;;;;;;;2.45;1.60;;;27.70;54.80;;;;;;4946799;28;20108;-79
2022/06/02 12:08:47;;;;;;;5.38;1.40;;;27.70;55.00;;;;;;4943387;28;20625;-78
2022/06/02 12:11:43;;;;;;;1.60;1.50;;;27.80;55.00;;;;;;4948505;28;20510;-77
2022/06/02 12:14:29;;;;;;;1.58;1.30;;;27.90;52.30;;;;;;4945199;28;20027;-79
2022/06/02 12:17:35;;;;;;;2.60;1.50;;;27.80;52.70;;;;;;4935688;28;20027;-79
2022/06/02 12:20:23;;;;;;;2.28;1.42;;;27.80;51.30;;;;;;4937585;28;20248;-79
2022/06/02 12:23:40;;;;;;;3.33;1.48;;;27.60;53.40;;;;;;4941020;28;20133;-79
2022/06/02 12:26:16;;;;;;;4.60;1.90;;;27.50;54.30;;;;;;4913012;28;20034;-77
2022/06/02 12:29:12;;;;;;;3.13;1.55;;;27.60;54.80;;;;;;4944146;28;20181;-77
2022/06/02 12:31:57;;;;;;;1.92;1.48;;;27.70;54.20;;;;;;4942087;28;20066;-77
2022/06/02 12:34:41;;;;;;;1.85;1.65;;;27.60;54.20;;;;;;4946579;28;20058;-77
2022/06/02 12:37:46;;;;;;;2.75;1.48;;;27.50;55.00;;;;;;4944357;28;20030;-77
2022/06/02 12:40:41;;;;;;;2.70;1.60;;;27.50;54.50;;;;;;4935896;28;20039;-78
2022/06/02 12:43:32;;;;;;;1.52;1.40;;;27.40;54.80;;;;;;4946779;28;20106;-77
2022/06/02 12:46:36;;;;;;;2.22;1.40;;;27.30;55.80;;;;;;4942075;28;20027;-79
2022/06/02 12:49:39;;;;;;;3.60;1.58;;;27.30;55.90;;;;;;4945806;28;20032;-79
2022/06/02 12:52:30;;;;;;;1.80;1.70;;;27.00;55.60;;;;;;4944522;28;20105;-80
2022/06/02 12:55:21;;;;;;;2.10;1.38;;;26.90;55.50;;;;;;4940811;28;20034;-82
2022/06/02 12:57:47;;;;;;;4.50;1.52;;;27.10;54.40;;;;;;4944740;28;20027;-82
2022/06/02 13:00:27;;;;;;;2.60;1.60;;;27.10;54.10;;;;;;4943009;28;20031;-81
2022/06/02 13:03:28;;;;;;;1.95;1.50;;;27.00;53.80;;;;;;4948280;28;20051;-82
2022/06/02 13:06:16;;;;;;;1.85;1.70;;;27.00;55.90;;;;;;4942666;28;20120;-82
2022/06/02 13:09:10;;;;;;;2.33;1.58;;;27.20;54.70;;;;;;4949033;28;20019;-80
2022/06/02 13:11:58;;;;;;;3.45;1.67;;;27.20;53.90;;;;;;4944636;28;20170;-81
2022/06/02 13:15:05;;;;;;;1.55;1.45;;;27.20;54.50;;;;;;4940423;28;20694;-81
2022/06/02 13:17:40;;;;;;;1.58;1.30;;;27.20;54.70;;;;;;4945600;28;20634;-80
2022/06/02 13:27:14;;;;;;;1.38;1.27;;;27.40;54.60;;;;;;4954771;28;20070;-83
2022/06/02 13:30:01;;;;;;;1.80;1.30;;;27.50;54.70;;;;;;4940337;28;20043;-76
2022/06/02 13:32:46;;;;;;;2.53;1.58;;;27.50;53.20;;;;;;4943103;28;20019;-74
2022/06/02 13:35:41;;;;;;;4.28;1.80;;;27.60;53.90;;;;;;4947813;28;20030;-75
2022/06/02 13:38:27;;;;;;;9.73;2.05;;;27.60;53.20;;;;;;4944192;28;20019;-75
2022/06/02 13:41:14;;;;;;;5.30;1.58;;;27.50;53.90;;;;;;4946563;28;20015;-78
2022/06/02 13:44:17;;;;;;;1.90;1.77;;;27.50;54.00;;;;;;4951973;28;20038;-76
2022/06/02 13:47:01;;;;;;;4.05;1.80;;;27.60;53.60;;;;;;4948487;28;20035;-75
2022/06/02 13:49:52;;;;;;;9.38;2.20;;;27.70;54.10;;;;;;4943847;28;20023;-75
2022/06/02 13:52:57;;;;;;;9.35;2.20;;;27.60;55.10;;;;;;4939355;28;20694;-77
2022/06/02 13:58:49;;;;;;;1.73;1.50;;;27.50;55.40;;;;;;4952019;28;20159;-76
2022/06/02 14:01:25;;;;;;;2.25;1.92;;;27.50;54.20;;;;;;4943621;28;20019;-75
2022/06/02 14:04:15;;;;;;;1.52;1.30;;;27.60;54.10;;;;;;4941117;28;20198;-76
2022/06/02 14:06:49;;;;;;;4.93;1.30;;;27.60;53.50;;;;;;4945098;28;20027;-75
2022/06/02 14:09:25;;;;;;;4.90;1.60;;;27.50;54.00;;;;;;4940425;28;20023;-76
2022/06/02 14:11:56;;;;;;;3.10;1.42;;;27.40;54.40;;;;;;4946679;28;20033;-77
2022/06/02 14:14:42;;;;;;;6.30;2.03;;;27.20;54.10;;;;;;4944257;28;20272;-77
2022/06/02 14:17:29;;;;;;;1.40;1.30;;;27.00;54.70;;;;;;4941396;28;20023;-78
2022/06/02 14:20:15;;;;;;;;;;;26.90;54.50;;;;;;4941190;28;20034;-77
2022/06/02 14:22:57;;;;;;;1.80;1.42;;;26.90;54.40;;;;;;4945935;28;20632;-76
2022/06/02 14:25:44;;;;;;;4.57;1.90;;;26.80;54.60;;;;;;4940517;28;20035;-74
2022/06/02 14:28:33;;;;;;;4.97;1.70;;;26.90;54.00;;;;;;4946768;28;20023;-82
2022/06/02 14:31:27;;;;;;;4.32;1.55;;;27.10;53.90;;;;;;4952734;28;20628;-79
2022/06/02 14:34:24;;;;;;;4.28;1.33;;;27.10;53.60;;;;;;4943567;28;20027;-79
2022/06/02 14:37:27;;;;;;;1.75;1.65;;;27.00;53.30;;;;;;4949845;28;20481;-78
2022/06/02 14:40:11;;;;;;;3.38;1.52;;;26.90;54.40;;;;;;4935172;28;20031;-81
2022/06/02 14:43:03;;;;;;;2.72;1.60;;;26.90;54.30;;;;;;4944892;28;20034;-82
2022/06/02 14:46:08;;;;;;;3.13;1.20;;;26.80;54.00;;;;;;4941484;28;20034;-80
2022/06/02 14:49:13;;;;;;;1.67;1.40;;;26.70;54.80;;;;;;4946706;28;20072;-80
2022/06/02 14:52:16;;;;;;;2.08;1.50;;;26.90;53.20;;;;;;4945273;28;20078;-79
2022/06/02 14:55:09;;;;;;;1.95;1.75;;;27.00;54.70;;;;;;4927797;28;20568;-79
2022/06/02 14:58:12;;;;;;;3.65;1.50;;;27.00;54.60;;;;;;4950223;28;20091;-78
2022/06/02 15:00:57;;;;;;;1.75;1.60;;;27.00;54.70;;;;;;4947521;28;20026;-78
2022/06/02 15:03:57;;;;;;;2.30;1.55;;;26.90;54.70;;;;;;4940294;28;20011;-78
2022/06/02 15:06:40;;;;;;;2.65;1.52;;;26.90;56.00;;;;;;4937798;28;20031;-78
2022/06/02 15:09:37;;;;;;;1.70;1.60;;;26.80;55.50;;;;;;4945749;28;20026;-78